< < Back
Terminal Aerodrome Forecast


Current Version              Previous Versions:   1  2  3  4  5  6  7  8  9  

Terminal Aerodrome Forecast

358
FTUS42 KGSP 292339
TAFCLT
TAF
KCLT 292339Z 3000/3024 20007KT P6SM SCT090 BKN250
     FM300500 24007KT P6SM BKN050
     FM300800 30007KT P6SM FEW040
     FM301600 33012G22KT P6SM FEW250=

Latest METAR

984
SAUS70 KWBC 300500 RRD
MTRCLT
METAR KCLT 300452Z 21007KT 10SM FEW250 06/M04 A3003 RMK AO2 SLP169
T00611044 401001039


USA.gov is the U.S. government's official web portal to all federal, state and local government web resources and services.